This is the latest recevied weather packets stored in our database for station/object VK2KGV-15. If no packets are shown the sender has not sent any weather packets the latest 10 day(s).
| Time | Temp. | Humidity | Pressure | Rain* | Wind** | Luminosity | Snow |
|---|---|---|---|---|---|---|---|
| 1788128864 | 56° F | 76% | 771.8 mmHg | 0 in | - | - | - |
| 1788126452 | 49° F | 92% | 772.2 mmHg | 0 in | - | - | - |
| 1788125245 | 43° F | 94% | 772.3 mmHg | 0 in | - | - | - |
| 1788124039 | 39° F | 94% | 772.3 mmHg | 0 in | - | - | - |
| 1788123436 | 38° F | 95% | 772.3 mmHg | 0 in | - | - | - |
| 1788121627 | 36° F | 93% | 772.1 mmHg | 0 in | - | - | - |
| 1788119214 | 37° F | 90% | 771.6 mmHg | 0 in | - | - | - |
| 1788116802 | 39° F | 90% | 771.4 mmHg | 0 in | - | - | - |
| 1788115596 | 40° F | 90% | 771.2 mmHg | 0 in | - | - | - |
| 1788114389 | 42° F | 91% | 771.2 mmHg | 0 in | - | - | - |
| 1788113786 | 42° F | 92% | 771.2 mmHg | 0 in | - | - | - |
| 1788112580 | 42° F | 92% | 771.2 mmHg | 0 in | - | - | - |
| 1788108358 | 40° F | 89% | 771.4 mmHg | 0 in | - | - | - |
| 1788107152 | 40° F | 86% | 771.5 mmHg | 0 in | - | - | - |
| 1788102327 | 42° F | 83% | 771.6 mmHg | 0 in | - | - | - |
| 1788101121 | 43° F | 82% | 771.7 mmHg | 0 in | - | - | - |
| 1788100518 | 43° F | 81% | 771.7 mmHg | 0 in | - | - | - |
| 1788099915 | 44° F | 80% | 771.7 mmHg | 0 in | - | - | - |
| 1788095693 | 48° F | 77% | 771.2 mmHg | 0 in | - | - | - |
| 1788093884 | 49° F | 77% | 771.3 mmHg | 0 in | - | - | - |
| 1788092678 | 48° F | 79% | 771.3 mmHg | 0 in | - | - | - |
| 1788090265 | 47° F | 73% | 771 mmHg | 0 in | - | - | - |
| 1788087853 | 47° F | 70% | 770.8 mmHg | 0 in | - | - | - |
| 1788086650 | 48° F | 69% | 770.8 mmHg | 0 in | - | - | - |
| 1788086046 | 48° F | 66% | 770.7 mmHg | 0 in | - | - | - |
* Rain since midnight (hover to see other rain measurements)
** Current wind speed in m/s (hover to see current wind gust speed)